Time;durP1;ratioP1;P1;durP2;ratioP2;P2;SDS_P1;SDS_P2;PMS_P1;PMS_P2;Temp;Humidity;BMP_temperature;BMP_pressure;BME280_temperature;BME280_humidity;BME280_pressure;Samples;Min_cycle;Max_cycle;Signal;HPM_P1;HPM_P2
2023/09/02 00:01:20;;;;;;;0.50;0.50;;;;;;;;;;5076423;28;20472;-82
2023/09/02 00:03:46;;;;;;;0.40;0.40;;;;;;;;;;5076795;28;20033;-82
2023/09/02 00:06:12;;;;;;;0.47;0.47;;;;;;;;;;5077343;28;20054;-82
2023/09/02 00:08:38;;;;;;;0.40;0.40;;;;;;;;;;5076858;28;20468;-82
2023/09/02 00:11:04;;;;;;;0.40;0.40;;;;;;;;;;5076873;28;20029;-82
2023/09/02 00:13:30;;;;;;;0.60;0.60;;;;;;;;;;5090256;28;20043;-83
2023/09/02 00:15:56;;;;;;;0.45;0.45;;;;;;;;;;5076200;28;20048;-83
2023/09/02 00:18:23;;;;;;;0.60;0.60;;;;;;;;;;5076721;28;20424;-83
2023/09/02 00:20:49;;;;;;;0.40;0.40;;;;;;;;;;5076930;28;20024;-83
2023/09/02 00:23:15;;;;;;;0.40;0.40;;;;;;;;;;5077146;28;20414;-83
2023/09/02 00:25:42;;;;;;;0.40;0.40;;;;;;;;;;5076558;28;20067;-83
2023/09/02 00:28:08;;;;;;;0.68;0.68;;;;;;;;;;5076147;28;20464;-83
2023/09/02 00:30:34;;;;;;;0.40;0.40;;;;;;;;;;5077191;28;20044;-83
2023/09/02 00:33:00;;;;;;;0.40;0.40;;;;;;;;;;5076195;28;20604;-83
2023/09/02 00:35:26;;;;;;;0.40;0.40;;;;;;;;;;5075688;28;20024;-83
2023/09/02 00:37:53;;;;;;;0.40;0.40;;;;;;;;;;5076194;28;20047;-83
2023/09/02 00:40:19;;;;;;;0.47;0.47;;;;;;;;;;5075849;28;20027;-83
2023/09/02 00:42:47;;;;;;;0.43;0.43;;;;;;;;;;5075445;28;20120;-83
2023/09/02 00:45:15;;;;;;;0.40;0.40;;;;;;;;;;5075789;28;20021;-83
2023/09/02 00:47:42;;;;;;;0.40;0.40;;;;;;;;;;5075678;28;20353;-83
2023/09/02 00:50:08;;;;;;;0.40;0.40;;;;;;;;;;5094948;28;20099;-81
2023/09/02 00:52:34;;;;;;;0.40;0.40;;;;;;;;;;5114520;28;20020;-82
2023/09/02 00:55:02;;;;;;;0.35;0.35;;;;;;;;;;5112767;28;20481;-81
2023/09/02 00:57:28;;;;;;;0.30;0.30;;;;;;;;;;5111387;28;20085;-80
2023/09/02 00:59:54;;;;;;;0.40;0.40;;;;;;;;;;5112837;28;20028;-82
2023/09/02 01:02:21;;;;;;;0.50;0.50;;;;;;;;;;5112833;28;20024;-81
2023/09/02 01:04:48;;;;;;;0.40;0.40;;;;;;;;;;5105049;28;20043;-79
2023/09/02 01:07:15;;;;;;;0.35;0.35;;;;;;;;;;5125798;28;20059;-79
2023/09/02 01:09:42;;;;;;;0.40;0.40;;;;;;;;;;5102460;28;20020;-81
2023/09/02 01:12:08;;;;;;;0.50;0.50;;;;;;;;;;5098529;28;20017;-82
2023/09/02 01:14:34;;;;;;;0.40;0.40;;;;;;;;;;5115013;28;20046;-82
2023/09/02 01:17:00;;;;;;;0.30;0.30;;;;;;;;;;5113539;28;20512;-82
2023/09/02 01:19:27;;;;;;;0.40;0.40;;;;;;;;;;5113014;28;20024;-83
2023/09/02 01:22:05;;;;;;;0.40;0.40;;;;;;;;;;5113749;28;20058;-82
2023/09/02 01:24:38;;;;;;;0.40;0.40;;;;;;;;;;5112522;28;20031;-82
2023/09/02 01:27:44;;;;;;;0.40;0.40;;;461.40;2380.80;;;;;;5126268;27;20001;-81
2023/09/02 01:30:22;;;;;;;0.40;0.40;;;461.20;2380.80;;;;;;5120048;28;20028;-82
2023/09/02 01:32:52;;;;;;;0.40;0.40;;;461.10;2380.80;;;;;;5137400;27;20034;-81
2023/09/02 01:35:29;;;;;;;0.40;0.40;;;461.00;2380.80;;;;;;5137408;27;20016;-82
2023/09/02 01:37:56;;;;;;;0.40;0.40;;;461.10;2380.80;;;;;;5137185;27;20028;-82
2023/09/02 01:40:25;;;;;;;0.50;0.50;;;461.10;2380.80;;;;;;5137392;27;20023;-82
2023/09/02 01:42:52;;;;;;;0.40;0.40;;;461.30;2380.80;;;;;;5120780;28;20012;-83
2023/09/02 01:45:19;;;;;;;0.40;0.40;;;461.20;2380.80;;;;;;5137016;27;20014;-83
2023/09/02 01:47:50;;;;;;;0.40;0.40;;;461.10;2380.80;;;;;;5120741;28;20005;-82
2023/09/02 01:50:19;;;;;;;4.88;0.63;;;461.30;2380.80;;;;;;5131404;27;20032;-82
2023/09/02 01:52:47;;;;;;;0.40;0.40;;;461.40;2380.80;;;;;;5131268;28;20039;-83
2023/09/02 01:55:14;;;;;;;1.08;0.65;;;461.40;2380.80;;;;;;5128680;28;20042;-82
2023/09/02 01:57:40;;;;;;;0.68;0.68;;;461.40;2380.80;;;;;;5111475;28;20028;-82
2023/09/02 02:00:08;;;;;;;0.40;0.40;;;461.40;2380.80;;;;;;5116901;28;20024;-83
2023/09/02 02:02:36;;;;;;;0.40;0.40;;;461.40;2380.80;;;;;;5134225;28;20024;-84
2023/09/02 02:05:05;;;;;;;0.50;0.50;;;461.40;2380.80;;;;;;5130992;28;20024;-83
2023/09/02 02:07:36;;;;;;;0.45;0.45;;;461.20;2380.80;;;;;;5120774;28;20027;-83
2023/09/02 02:10:06;;;;;;;0.50;0.50;;;461.20;2380.80;;;;;;5113718;28;20031;-83
2023/09/02 02:12:32;;;;;;;0.40;0.40;;;461.20;2380.80;;;;;;5114448;28;20016;-82
2023/09/02 02:14:58;;;;;;;0.65;0.65;;;461.00;2380.80;;;;;;5096210;28;20035;-81
2023/09/02 02:17:24;;;;;;;0.40;0.40;;;461.10;2380.80;;;;;;5112770;28;20036;-82
2023/09/02 02:19:51;;;;;;;0.52;0.52;;;461.20;2380.80;;;;;;5112308;28;20121;-83
2023/09/02 02:22:17;;;;;;;0.40;0.40;;;;;;;;;;5114116;28;20024;-82
2023/09/02 02:24:43;;;;;;;0.40;0.40;;;;;;;;;;5096263;28;20024;-81
2023/09/02 02:27:09;;;;;;;0.43;0.43;;;;;;;;;;5110649;28;20031;-83
2023/09/02 02:29:35;;;;;;;0.50;0.50;;;;;;;;;;5111006;28;20025;-83
2023/09/02 02:32:02;;;;;;;0.50;0.50;;;;;;;;;;5111088;28;20024;-82
2023/09/02 02:34:28;;;;;;;0.60;0.60;;;;;;;;;;5110581;28;20376;-83
2023/09/02 02:36:54;;;;;;;0.40;0.40;;;;;;;;;;5110726;28;20031;-82
2023/09/02 02:39:20;;;;;;;0.40;0.40;;;;;;;;;;5095705;28;20016;-82
2023/09/02 02:41:46;;;;;;;0.80;0.80;;;;;;;;;;5110494;28;20464;-82
2023/09/02 02:44:12;;;;;;;0.50;0.50;;;;;;;;;;5110384;28;20025;-82
2023/09/02 02:46:38;;;;;;;0.43;0.43;;;;;;;;;;5111321;28;20035;-81
2023/09/02 02:49:04;;;;;;;0.50;0.50;;;;;;;;;;5110388;28;20422;-81
2023/09/02 02:51:30;;;;;;;0.40;0.40;;;;;;;;;;5110448;28;20024;-80
2023/09/02 02:53:57;;;;;;;0.40;0.40;;;;;;;;;;5110800;28;20031;-81
2023/09/02 02:56:23;;;;;;;0.40;0.40;;;;;;;;;;5111394;28;20020;-80
2023/09/02 02:58:49;;;;;;;0.40;0.40;;;;;;;;;;5094886;28;20031;-80
2023/09/02 03:01:15;;;;;;;0.43;0.43;;;;;;;;;;5094604;28;20428;-81
2023/09/02 03:03:41;;;;;;;0.38;0.38;;;;;;;;;;5109811;28;20058;-82
2023/09/02 03:06:07;;;;;;;0.47;0.47;;;;;;;;;;5110051;28;20020;-81
2023/09/02 03:08:34;;;;;;;0.70;0.70;;;;;;;;;;5110392;28;20120;-80
2023/09/02 03:11:02;;;;;;;0.40;0.40;;;;;;;;;;5109864;28;20031;-80
2023/09/02 03:13:33;;;;;;;0.50;0.50;;;;;;;;;;5110102;28;20017;-80
2023/09/02 03:16:00;;;;;;;0.30;0.30;;;;;;;;;;5093941;28;20055;-80
2023/09/02 03:18:27;;;;;;;0.60;0.60;;;;;;;;;;5109896;28;20118;-80
2023/09/02 03:20:53;;;;;;;0.50;0.50;;;;;;;;;;5110472;28;20047;-81
2023/09/02 03:23:19;;;;;;;0.50;0.50;;;;;;;;;;5109918;28;20058;-82
2023/09/02 03:25:45;;;;;;;0.40;0.40;;;;;;;;;;5109906;28;20468;-80
2023/09/02 03:28:12;;;;;;;0.70;0.70;;;;;;;;;;5109787;28;20111;-81
2023/09/02 03:30:39;;;;;;;0.40;0.40;;;;;;;;;;5109651;28;20024;-81
2023/09/02 03:33:05;;;;;;;0.40;0.40;;;;;;;;;;5110016;28;20452;-81
2023/09/02 03:35:37;;;;;;;0.40;0.40;;;;;;;;;;5109890;28;20418;-83
2023/09/02 03:38:03;;;;;;;0.50;0.50;;;;;;;;;;5109512;28;20483;-83
2023/09/02 03:40:30;;;;;;;0.50;0.50;;;;;;;;;;5109876;28;20123;-81
2023/09/02 03:42:56;;;;;;;0.40;0.40;;;;;;;;;;5094196;28;20024;-82
2023/09/02 03:45:22;;;;;;;0.43;0.43;;;;;;;;;;5109321;28;20494;-82
2023/09/02 03:47:48;;;;;;;0.57;0.57;;;;;;;;;;5109836;28;20028;-81
2023/09/02 03:50:22;;;;;;;0.50;0.50;;;;;;;;;;5109661;28;20024;-82
2023/09/02 03:52:48;;;;;;;0.50;0.50;;;;;;;;;;5109541;28;20357;-83
2023/09/02 03:55:14;;;;;;;0.73;0.60;;;;;;;;;;5109802;28;20119;-81
2023/09/02 03:57:40;;;;;;;0.40;0.40;;;;;;;;;;5093579;28;20510;-80
2023/09/02 04:00:07;;;;;;;0.75;0.75;;;;;;;;;;5109535;28;20027;-81
2023/09/02 04:02:33;;;;;;;0.50;0.50;;;;;;;;;;5109655;28;20525;-81
2023/09/02 04:05:01;;;;;;;0.40;0.40;;;;;;;;;;5109397;28;20028;-81
2023/09/02 04:07:27;;;;;;;0.50;0.50;;;;;;;;;;5109944;28;20451;-80
2023/09/02 04:09:55;;;;;;;0.52;0.52;;;;;;;;;;5109150;28;20032;-80
2023/09/02 04:12:21;;;;;;;0.50;0.50;;;;;;;;;;5109409;28;20065;-82
2023/09/02 04:14:47;;;;;;;0.50;0.50;;;;;;;;;;5108978;28;20028;-82
2023/09/02 04:17:13;;;;;;;0.40;0.40;;;;;;;;;;5109283;28;20028;-82
2023/09/02 04:19:39;;;;;;;0.50;0.50;;;;;;;;;;5093193;28;20020;-81
2023/09/02 04:22:05;;;;;;;0.50;0.50;;;;;;;;;;5109510;28;20024;-81
2023/09/02 04:24:31;;;;;;;0.50;0.50;;;;;;;;;;5109652;28;20056;-82
2023/09/02 04:26:57;;;;;;;0.50;0.50;;;;;;;;;;5109461;28;20050;-83
2023/09/02 04:29:23;;;;;;;0.50;0.50;;;;;;;;;;5109211;28;20028;-83
2023/09/02 04:31:52;;;;;;;0.50;0.50;;;;;;;;;;5112840;28;20105;-81
2023/09/02 04:34:19;;;;;;;0.40;0.40;;;;;;;;;;5113680;28;20103;-81
2023/09/02 04:36:45;;;;;;;0.60;0.60;;;;;;;;;;5114792;28;20024;-83
2023/09/02 04:39:11;;;;;;;0.40;0.40;;;;;;;;;;5113028;28;20020;-81
2023/09/02 04:41:37;;;;;;;0.50;0.50;;;;;;;;;;5099021;28;20052;-83
2023/09/02 04:44:03;;;;;;;0.50;0.50;;;;;;;;;;5113725;28;20446;-83
2023/09/02 04:46:29;;;;;;;0.50;0.50;;;;;;;;;;5115560;28;20030;-83
2023/09/02 04:48:55;;;;;;;0.50;0.50;;;;;;;;;;5098298;28;20517;-82
2023/09/02 04:51:22;;;;;;;0.50;0.50;;;;;;;;;;5113778;28;20024;-83
2023/09/02 04:53:48;;;;;;;0.50;0.50;;;;;;;;;;5114243;28;20375;-81
2023/09/02 04:56:14;;;;;;;0.50;0.50;;;;;;;;;;5112640;28;20510;-83
2023/09/02 04:58:40;;;;;;;0.55;0.55;;;;;;;;;;5112475;28;20028;-83
2023/09/02 05:01:13;;;;;;;0.50;0.50;;;;;;;;;;5112283;28;20063;-81
2023/09/02 05:03:40;;;;;;;0.50;0.50;;;;;;;;;;5112791;28;20107;-82
2023/09/02 05:06:08;;;;;;;0.50;0.50;;;;;;;;;;5112684;28;20382;-81
2023/09/02 05:08:34;;;;;;;0.50;0.50;;;;;;;;;;5112261;28;20020;-82
2023/09/02 05:11:03;;;;;;;0.75;0.75;;;;;;;;;;5112377;28;20024;-80
2023/09/02 05:13:29;;;;;;;0.50;0.50;;;;;;;;;;5112338;28;20051;-80
2023/09/02 05:15:55;;;;;;;0.50;0.50;;;;;;;;;;5112171;28;20398;-80
2023/09/02 05:18:21;;;;;;;0.50;0.50;;;;;;;;;;5112335;28;20047;-80
2023/09/02 05:20:47;;;;;;;0.50;0.50;;;;;;;;;;5112978;28;20020;-81
2023/09/02 05:23:13;;;;;;;0.55;0.55;;;;;;;;;;5096245;28;20020;-82
2023/09/02 05:25:39;;;;;;;0.40;0.40;;;;;;;;;;5096234;28;20535;-81
2023/09/02 05:28:06;;;;;;;0.45;0.45;;;;;;;;;;5112659;28;20085;-80
2023/09/02 05:30:35;;;;;;;0.77;0.77;;;;;;;;;;5096032;28;20160;-81
2023/09/02 05:33:01;;;;;;;0.50;0.50;;;;;;;;;;5096692;28;20100;-81
2023/09/02 05:35:27;;;;;;;0.52;0.52;;;;;;;;;;5111940;28;20055;-81
2023/09/02 05:37:53;;;;;;;0.50;0.50;;;;;;;;;;5111512;28;20027;-82
2023/09/02 05:40:19;;;;;;;0.50;0.50;;;;;;;;;;5096016;28;20025;-82
2023/09/02 05:42:45;;;;;;;0.50;0.50;;;;;;;;;;5095493;28;20099;-81
2023/09/02 05:45:11;;;;;;;0.50;0.50;;;;;;;;;;5111805;28;20036;-81
2023/09/02 05:47:38;;;;;;;0.40;0.40;;;;;;;;;;5112079;28;20042;-81
2023/09/02 05:50:04;;;;;;;0.65;0.65;;;;;;;;;;5095994;28;20028;-83
2023/09/02 05:52:30;;;;;;;0.60;0.60;;;;;;;;;;5111781;28;20020;-81
2023/09/02 05:54:56;;;;;;;0.50;0.50;;;;;;;;;;5112734;28;20034;-81
2023/09/02 05:57:22;;;;;;;0.43;0.43;;;;;;;;;;5111280;28;20032;-81
2023/09/02 05:59:48;;;;;;;0.50;0.50;;;;;;;;;;5095875;28;20031;-81
2023/09/02 06:02:15;;;;;;;0.40;0.40;;;;;;;;;;5116907;28;20448;-78
2023/09/02 06:04:41;;;;;;;0.40;0.40;;;;;;;;;;5117092;28;20028;-79
2023/09/02 06:07:07;;;;;;;0.50;0.50;;;;;;;;;;5114956;28;20077;-81
2023/09/02 06:09:33;;;;;;;0.40;0.40;;;;;;;;;;5113848;28;20041;-81
2023/09/02 06:11:59;;;;;;;0.50;0.50;;;;;;;;;;5113377;28;20099;-81
2023/09/02 06:14:25;;;;;;;0.40;0.40;;;;;;;;;;5112614;28;20024;-82
2023/09/02 06:16:51;;;;;;;0.40;0.40;;;;;;;;;;5110836;28;20056;-80
2023/09/02 06:19:17;;;;;;;1.02;1.02;;;;;;;;;;5111173;28;20483;-80
2023/09/02 06:21:45;;;;;;;0.50;0.50;;;;;;;;;;5111069;28;20026;-80
2023/09/02 06:24:11;;;;;;;0.40;0.40;;;;;;;;;;5110919;28;20027;-80
2023/09/02 06:26:38;;;;;;;0.50;0.50;;;;;;;;;;5095128;28;20028;-79
2023/09/02 06:29:04;;;;;;;0.40;0.40;;;;;;;;;;5110807;28;20028;-80
2023/09/02 06:31:30;;;;;;;0.40;0.40;;;;;;;;;;5111571;28;20024;-81
2023/09/02 06:33:56;;;;;;;0.60;0.60;;;;;;;;;;5110969;28;20123;-79
2023/09/02 06:36:22;;;;;;;0.50;0.50;;;;;;;;;;5110814;28;20047;-80
2023/09/02 06:38:50;;;;;;;0.40;0.40;;;;;;;;;;5110490;28;20118;-80
2023/09/02 06:41:16;;;;;;;0.73;0.73;;;;;;;;;;5111480;28;20466;-81
2023/09/02 06:43:43;;;;;;;0.50;0.50;;;;;;;;;;5110997;28;20027;-81
2023/09/02 06:46:15;;;;;;;0.40;0.40;;;;;;;;;;5110437;28;20172;-80
2023/09/02 06:48:41;;;;;;;0.30;0.30;;;;;;;;;;5110522;28;20028;-81
2023/09/02 06:51:08;;;;;;;0.40;0.40;;;;;;;;;;5110386;28;20035;-80
2023/09/02 06:53:34;;;;;;;0.50;0.50;;;;;;;;;;5110095;28;20024;-77
2023/09/02 06:56:01;;;;;;;0.45;0.45;;;;;;;;;;5093750;28;20020;-79
2023/09/02 06:58:27;;;;;;;0.45;0.45;;;;;;;;;;5110250;28;20030;-79
2023/09/02 07:00:53;;;;;;;0.50;0.50;;;;;;;;;;5110109;28;20475;-79
2023/09/02 07:03:19;;;;;;;0.73;0.73;;;;;;;;;;5110323;28;20455;-79
2023/09/02 07:05:45;;;;;;;0.60;0.60;;;;;;;;;;5114031;28;20459;-78
2023/09/02 07:08:11;;;;;;;0.75;0.68;;;;;;;;;;5114867;28;20031;-78
2023/09/02 07:10:38;;;;;;;0.40;0.40;;;;;;;;;;5116037;28;20024;-78
2023/09/02 07:13:04;;;;;;;0.40;0.40;;;;;;;;;;5111742;28;20024;-78
2023/09/02 07:15:30;;;;;;;0.40;0.40;;;;;;;;;;5111117;28;20059;-78
2023/09/02 07:17:56;;;;;;;0.60;0.60;;;;;;;;;;5110949;28;20024;-78
2023/09/02 07:20:22;;;;;;;0.50;0.50;;;;;;;;;;5096241;28;20034;-79
2023/09/02 07:22:48;;;;;;;0.75;0.75;;;;;;;;;;5111888;28;20137;-79
2023/09/02 07:25:14;;;;;;;0.40;0.40;;;;;;;;;;5113686;28;20020;-81
2023/09/02 07:27:40;;;;;;;0.40;0.40;;;;;;;;;;5112519;28;20028;-78
2023/09/02 07:30:07;;;;;;;0.43;0.43;;;;;;;;;;5110494;28;20115;-78
2023/09/02 07:32:33;;;;;;;0.70;0.70;;;;;;;;;;5110181;28;20019;-80
2023/09/02 07:34:59;;;;;;;0.40;0.40;;;;;;;;;;5110003;28;20062;-80
2023/09/02 07:37:25;;;;;;;0.40;0.40;;;;;;;;;;5094882;28;20053;-80
2023/09/02 07:39:51;;;;;;;0.82;0.82;;;;;;;;;;5110120;28;20032;-81
2023/09/02 07:42:17;;;;;;;0.40;0.40;;;;;;;;;;5110249;28;20489;-80
2023/09/02 07:44:43;;;;;;;0.30;0.30;;;;;;;;;;5109912;28;20109;-81
2023/09/02 07:47:09;;;;;;;0.43;0.43;;;;;;;;;;5110742;28;20383;-82
2023/09/02 07:49:35;;;;;;;0.30;0.30;;;;;;;;;;5109454;28;20020;-82
2023/09/02 07:52:01;;;;;;;0.35;0.35;;;;;;;;;;5109749;28;20028;-82
2023/09/02 07:54:28;;;;;;;0.30;0.30;;;;;;;;;;5110412;28;20020;-81
2023/09/02 07:56:54;;;;;;;0.38;0.38;;;;;;;;;;5109472;28;20463;-83
2023/09/02 07:59:20;;;;;;;0.40;0.40;;;;;;;;;;5110047;28;20024;-82
2023/09/02 08:01:46;;;;;;;0.30;0.30;;;;;;;;;;5094089;28;20406;-83
2023/09/02 08:04:12;;;;;;;0.30;0.30;;;;;;;;;;5109383;28;20017;-82
2023/09/02 08:06:38;;;;;;;0.60;0.60;;;;;;;;;;5112319;28;20153;-80
2023/09/02 08:09:04;;;;;;;0.30;0.30;;;;;;;;;;5113636;28;20024;-82
2023/09/02 08:11:32;;;;;;;1.05;0.80;;;;;;;;;;5113483;28;20024;-81
2023/09/02 08:13:58;;;;;;;0.30;0.30;;;;;;;;;;5114137;28;20023;-80
2023/09/02 08:16:24;;;;;;;0.35;0.35;;;;;;;;;;5113877;28;20051;-80
2023/09/02 08:18:50;;;;;;;0.30;0.30;;;;;;;;;;5113266;28;20028;-81
2023/09/02 08:21:16;;;;;;;0.30;0.30;;;;;;;;;;5113665;28;20131;-81
2023/09/02 08:23:42;;;;;;;0.30;0.30;;;;;;;;;;5113616;28;20035;-82
2023/09/02 08:26:10;;;;;;;0.40;0.40;;;;;;;;;;5113410;28;20081;-81
2023/09/02 08:28:36;;;;;;;0.30;0.30;;;;;;;;;;5113126;28;20034;-81
2023/09/02 08:31:02;;;;;;;0.30;0.30;;;;;;;;;;5098001;28;20024;-83
2023/09/02 08:33:29;;;;;;;0.30;0.30;;;;;;;;;;5112923;28;20073;-82
2023/09/02 08:35:54;;;;;;;0.30;0.30;;;614.80;2432.00;;;;;;5113092;28;20013;-81
2023/09/02 08:38:20;;;;;;;0.30;0.30;;;614.90;2432.00;;;;;;5112696;28;20077;-82
2023/09/02 08:40:48;;;;;;;0.30;0.30;;;614.90;2432.00;;;;;;5113042;28;20028;-83
2023/09/02 08:43:15;;;;;;;0.30;0.30;;;615.10;2432.00;;;;;;5097450;28;20028;-81
2023/09/02 08:45:44;;;;;;;0.20;0.20;;;;;;;;;;5113094;28;20047;-82
2023/09/02 08:48:12;;;;;;;0.30;0.30;;;;;;;;;;5112848;28;20034;-83
2023/09/02 08:50:38;;;;;;;0.20;0.20;;;;;;;;;;5113084;28;20027;-82
2023/09/02 08:53:04;;;;;;;0.30;0.30;;;;;;;;;;5112880;28;20016;-83
2023/09/02 08:55:32;;;;;;;0.20;0.20;;;;;;;;;;5113229;28;20020;-82
2023/09/02 08:57:59;;;;;;;0.20;0.20;;;;;;;;;;5113767;28;20401;-83
2023/09/02 09:00:25;;;;;;;0.30;0.30;;;;;;;;;;5114880;28;20116;-83
2023/09/02 09:02:52;;;;;;;0.30;0.30;;;;;;;;;;5113663;28;20039;-79
2023/09/02 09:05:18;;;;;;;0.25;0.25;;;;;;;;;;5113364;28;20020;-81
2023/09/02 09:07:45;;;;;;;0.20;0.20;;;;;;;;;;5113436;28;20066;-83
2023/09/02 09:10:11;;;;;;;0.30;0.30;;;;;;;;;;5113007;28;20440;-81
2023/09/02 09:12:37;;;;;;;0.20;0.20;;;;;;;;;;5112157;28;20081;-81
2023/09/02 09:15:06;;;;;;;0.30;0.30;;;666.10;2355.20;;;;;;5112916;28;20048;-82
2023/09/02 09:17:32;;;;;;;0.20;0.20;;;666.00;2380.80;;;;;;5111403;28;20032;-79
2023/09/02 09:19:59;;;;;;;0.20;0.20;;;666.00;2380.80;;;;;;5112645;28;20327;-82
2023/09/02 09:22:26;;;;;;;0.20;0.20;;;666.00;2355.20;;;;;;5113107;28;20020;-80
2023/09/02 09:24:52;;;;;;;0.20;0.20;;;666.10;2329.60;;;;;;5112532;28;20166;-83
2023/09/02 09:27:18;;;;;;;0.20;0.20;;;666.30;2329.60;;;;;;5112239;28;20056;-81
2023/09/02 09:29:45;;;;;;;0.30;0.30;;;666.10;2380.80;;;;;;5112920;28;20024;-79
2023/09/02 09:32:15;;;;;;;0.30;0.30;;;666.20;2329.60;;;;;;5097717;28;20392;-82
2023/09/02 09:34:42;;;;;;;0.25;0.25;;;665.90;2329.60;;;;;;5112688;28;20452;-80
2023/09/02 09:37:09;;;;;;;0.35;0.35;;;666.20;2304.00;;;;;;5096045;28;20054;-81
2023/09/02 09:39:51;;;;;;;0.20;0.20;;;691.20;2304.00;;;;;;5111910;28;20028;-81
2023/09/02 09:42:31;;;;;;;0.20;0.20;;;691.30;2278.40;;;;;;5111768;28;20020;-80
2023/09/02 09:44:58;;;;;;;0.35;0.35;;;691.60;2227.20;;;;;;5111781;28;20032;-80
2023/09/02 09:47:25;;;;;;;0.20;0.20;;;691.50;2201.60;;;;;;5111939;28;20399;-81
2023/09/02 09:49:52;;;;;;;0.20;0.20;;;691.50;2201.60;;;;;;5111354;28;20028;-80
2023/09/02 09:52:19;;;;;;;0.20;0.20;;;;;;;;;;5111853;28;20035;-82
2023/09/02 09:54:56;;;;;;;0.20;0.20;;;691.80;2150.40;;;;;;5111506;28;20024;-80
2023/09/02 09:57:37;;;;;;;0.20;0.20;;;691.90;2150.40;;;;;;5111445;28;20028;-82
2023/09/02 10:00:07;;;;;;;0.20;0.20;;;692.10;2124.80;;;;;;5112241;28;20030;-82
2023/09/02 10:02:34;;;;;;;0.22;0.22;;;692.10;2073.60;;;;;;5112208;28;20058;-82
2023/09/02 10:05:02;;;;;;;0.30;0.30;;;692.10;2073.60;;;;;;5112850;28;20020;-79
2023/09/02 10:07:33;;;;;;;0.20;0.20;;;716.90;2150.40;;;;;;5112723;28;20032;-78
2023/09/02 10:10:00;;;;;;;0.20;0.20;;;;;;;;;;5111677;28;20020;-80
2023/09/02 10:12:33;;;;;;;0.20;0.20;;;;;;;;;;5112716;28;20024;-80
2023/09/02 10:14:59;;;;;;;0.20;0.20;;;717.70;1996.80;;;;;;5113596;28;20024;-81
2023/09/02 10:17:26;;;;;;;0.30;0.30;;;;;;;;;;5112127;28;20127;-81
2023/09/02 10:19:52;;;;;;;0.40;0.40;;;742.40;2022.40;;;;;;5112243;28;20058;-81
2023/09/02 10:22:20;;;;;;;0.20;0.20;;;;;;;;;;5111931;28;20032;-81
2023/09/02 10:25:05;;;;;;;0.35;0.35;;;742.50;2022.40;;;;;;5111128;28;20498;-80
2023/09/02 10:27:32;;;;;;;0.20;0.20;;;;;;;;;;5111268;28;20032;-80
2023/09/02 10:30:00;;;;;;;0.20;0.20;;;;;;;;;;5110412;28;20020;-81
2023/09/02 10:32:40;;;;;;;0.25;0.25;;;743.10;1996.80;;;;;;5110900;28;20032;-80
2023/09/02 10:35:13;;;;;;;0.20;0.20;;;;;;;;;;5095273;28;20035;-82
2023/09/02 10:37:55;;;;;;;0.20;0.20;;;768.00;1971.20;;;;;;5111016;28;20082;-81
2023/09/02 10:40:20;;;;;;;0.20;0.20;;;768.40;1945.60;;;;;;5095142;28;20024;-81
2023/09/02 10:42:47;;;;;;;0.15;0.15;;;;;;;;;;5094954;28;20442;-80
2023/09/02 10:45:13;;;;;;;0.30;0.30;;;;;;;;;;5110402;28;20016;-81
2023/09/02 10:47:40;;;;;;;0.20;0.20;;;;;;;;;;5110390;28;20024;-81
2023/09/02 10:50:07;;;;;;;0.17;0.17;;;;;;;;;;5111433;28;20154;-81
2023/09/02 10:52:33;;;;;;;0.10;0.10;;;;;;;;;;5110613;28;20020;-81
2023/09/02 10:55:03;;;;;;;0.10;0.10;;;;;;;;;;5109968;28;20062;-82
2023/09/02 10:57:30;;;;;;;0.15;0.15;;;;;;;;;;5094925;28;20106;-82
2023/09/02 11:00:31;;;;;;;0.10;0.10;;;;;;;;;;5095165;28;20498;-78
2023/09/02 11:03:00;;;;;;;0.10;0.10;;;;;;;;;;5058317;28;20059;-80
2023/09/02 11:05:27;;;;;;;0.10;0.10;;;;;;;;;;5056259;28;20091;-82
2023/09/02 11:07:53;;;;;;;0.10;0.10;;;;;;;;;;5055590;28;20029;-83
2023/09/02 11:10:20;;;;;;;0.20;0.20;;;;;;;;;;5056332;28;20059;-82
2023/09/02 11:12:58;;;;;;;0.17;0.17;;;;;;;;;;5054563;28;20039;-84
2023/09/02 11:15:24;;;;;;;0.10;0.10;;;;;;;;;;5055415;28;20103;-82
2023/09/02 11:17:51;;;;;;;0.17;0.17;;;;;;;;;;5072122;28;20033;-83
2023/09/02 11:20:19;;;;;;;0.20;0.20;;;;;;;;;;5055009;28;20037;-83
2023/09/02 11:22:50;;;;;;;0.10;0.10;;;;;;;;;;5056992;28;20033;-84
2023/09/02 11:25:28;;;;;;;0.30;0.30;;;;;;;;;;5035007;28;20538;-83
2023/09/02 11:27:55;;;;;;;0.20;0.20;;;;;;;;;;5051579;28;20366;-84
2023/09/02 11:30:22;;;;;;;0.20;0.20;;;;;;;;;;5035233;28;20025;-84
2023/09/02 11:32:49;;;;;;;0.17;0.17;;;;;;;;;;5034702;28;20033;-83
2023/09/02 11:35:28;;;;;;;0.10;0.10;;;;;;;;;;5035219;28;20108;-83
2023/09/02 11:37:55;;;;;;;0.20;0.20;;;;;;;;;;5069191;28;20055;-83
2023/09/02 11:40:22;;;;;;;0.17;0.17;;;;;;;;;;5071981;28;20051;-83
2023/09/02 11:42:53;;;;;;;0.10;0.10;;;;;;;;;;5073138;28;20024;-83
2023/09/02 11:45:19;;;;;;;0.28;0.15;;;;;;;;;;5073656;28;20020;-85
2023/09/02 11:47:47;;;;;;;0.10;0.10;;;;;;;;;;5074417;28;20031;-84
2023/09/02 11:50:14;;;;;;;0.10;0.10;;;;;;;;;;5072877;28;20052;-81
2023/09/02 11:52:41;;;;;;;0.10;0.10;;;;;;;;;;5072818;28;20108;-82
2023/09/02 11:55:14;;;;;;;0.10;0.10;;;;;;;;;;5072651;28;20106;-81
2023/09/02 11:57:40;;;;;;;0.05;0.05;;;;;;;;;;5092463;28;20056;-82
2023/09/02 12:00:07;;;;;;;0.10;0.10;;;;;;;;;;5092636;28;20046;-81
2023/09/02 12:02:37;;;;;;;0.10;0.10;;;;;;;;;;5092135;28;20529;-82
2023/09/02 12:05:06;;;;;;;0.10;0.10;;;;;;;;;;5092171;28;20127;-81
2023/09/02 12:07:34;;;;;;;0.10;0.10;;;;;;;;;;5094556;28;20012;-82
2023/09/02 12:10:10;;;;;;;0.10;0.10;;;;;;;;;;5093154;28;20036;-81
2023/09/02 12:12:39;;;;;;;0.10;0.10;;;;;;;;;;5088636;28;20127;-81
2023/09/02 12:15:05;;;;;;;0.03;0.03;;;;;;;;;;5073289;28;20090;-81
2023/09/02 12:17:32;;;;;;;0.10;0.10;;;;;;;;;;5075165;28;20115;-81
2023/09/02 12:19:59;;;;;;;0.00;0.00;;;;;;;;;;5072997;28;20031;-82
2023/09/02 12:22:25;;;;;;;0.15;0.10;;;;;;;;;;5077800;28;20021;-80
2023/09/02 12:24:51;;;;;;;0.10;0.10;;;;;;;;;;5073319;28;20024;-83
2023/09/02 12:27:18;;;;;;;0.10;0.10;;;;;;;;;;5074614;28;20025;-83
2023/09/02 12:29:54;;;;;;;0.00;0.00;;;;;;;;;;5073540;28;20031;-83
2023/09/02 12:32:20;;;;;;;0.05;0.05;;;;;;;;;;5073295;28;20029;-81
2023/09/02 12:34:50;;;;;;;0.28;0.20;;;;;;;;;;5074486;28;20029;-81
2023/09/02 12:37:20;;;;;;;0.10;0.10;;;;;;;;;;5059619;28;20086;-80
2023/09/02 12:39:49;;;;;;;0.10;0.10;;;;;;;;;;5075517;28;20025;-80
2023/09/02 12:42:19;;;;;;;0.00;0.00;;;;;;;;;;5060349;28;20391;-80
2023/09/02 12:44:51;;;;;;;0.10;0.10;;;;;;;;;;5071495;28;20023;-83
2023/09/02 12:47:21;;;;;;;0.10;0.10;;;;;;;;;;5071646;28;20028;-79
2023/09/02 12:49:47;;;;;;;0.08;0.08;;;;;;;;;;5071214;28;20052;-81
2023/09/02 12:52:17;;;;;;;0.13;0.13;;;;;;;;;;5071374;28;20021;-83
2023/09/02 12:54:52;;;;;;;0.20;0.20;;;;;;;;;;5075585;28;20075;-81
2023/09/02 12:57:19;;;;;;;0.10;0.10;;;;;;;;;;5076460;28;20056;-81
2023/09/02 12:59:45;;;;;;;0.10;0.10;;;;;;;;;;5075464;28;20016;-83
2023/09/02 13:02:11;;;;;;;0.65;0.40;;;;;;;;;;5076843;28;20031;-81
2023/09/02 13:04:37;;;;;;;0.10;0.10;;;;;;;;;;5076017;28;20107;-81
2023/09/02 13:07:03;;;;;;;0.13;0.13;;;;;;;;;;5075323;28;20375;-82
2023/09/02 13:09:30;;;;;;;0.10;0.10;;;;;;;;;;5075068;28;20030;-82
2023/09/02 13:11:57;;;;;;;0.10;0.10;;;;;;;;;;5074702;28;20024;-82
2023/09/02 13:14:23;;;;;;;0.10;0.10;;;;;;;;;;5074955;28;20579;-82
2023/09/02 13:16:49;;;;;;;0.10;0.10;;;;;;;;;;5074714;28;20048;-81
2023/09/02 13:19:15;;;;;;;0.10;0.10;;;;;;;;;;5074597;28;20032;-82
2023/09/02 13:21:41;;;;;;;0.20;0.17;;;;;;;;;;5074796;28;20498;-81
2023/09/02 13:24:07;;;;;;;0.10;0.10;;;;;;;;;;5075558;28;20035;-81
2023/09/02 13:26:33;;;;;;;0.20;0.17;;;;;;;;;;5074405;28;20558;-82
2023/09/02 13:29:04;;;;;;;0.13;0.13;;;;;;;;;;5074923;28;20028;-81
2023/09/02 13:31:30;;;;;;;0.10;0.10;;;;;;;;;;5074669;28;20017;-82
2023/09/02 13:33:56;;;;;;;0.00;0.00;;;;;;;;;;5074506;28;20034;-82
2023/09/02 13:36:22;;;;;;;0.10;0.10;;;;;;;;;;5075080;28;20025;-82
2023/09/02 13:38:49;;;;;;;0.25;0.25;;;;;;;;;;5074144;28;20081;-82
2023/09/02 13:41:15;;;;;;;0.10;0.10;;;;;;;;;;5074870;28;20036;-83
2023/09/02 13:43:41;;;;;;;0.10;0.10;;;;;;;;;;5074472;28;20533;-82
2023/09/02 13:46:09;;;;;;;0.10;0.10;;;;;;;;;;5074126;28;20024;-81
2023/09/02 13:48:35;;;;;;;0.10;0.10;;;;;;;;;;5074362;28;20358;-81
2023/09/02 13:51:04;;;;;;;0.38;0.38;;;;;;;;;;5075518;28;20032;-81
2023/09/02 13:53:33;;;;;;;0.10;0.10;;;;;;;;;;5073618;28;20020;-81
2023/09/02 13:55:59;;;;;;;0.10;0.10;;;;;;;;;;5074554;28;20027;-81
2023/09/02 13:58:33;;;;;;;0.20;0.20;;;;;;;;;;5075396;28;20033;-83
2023/09/02 14:00:59;;;;;;;0.10;0.10;;;;;;;;;;5074641;28;20048;-81
2023/09/02 14:03:26;;;;;;;0.22;0.20;;;;;;;;;;5075951;28;20029;-81
2023/09/02 14:05:53;;;;;;;0.10;0.10;;;;;;;;;;5074742;28;20035;-81
2023/09/02 14:08:20;;;;;;;0.30;0.20;;;;;;;;;;5075348;28;20514;-81
2023/09/02 14:10:47;;;;;;;0.10;0.10;;;;;;;;;;5076336;28;20036;-81
2023/09/02 14:13:15;;;;;;;0.10;0.10;;;;;;;;;;5075931;28;20534;-82
2023/09/02 14:15:41;;;;;;;0.10;0.10;;;;;;;;;;5076885;28;20127;-81
2023/09/02 14:18:07;;;;;;;0.10;0.10;;;;;;;;;;5076051;28;20040;-81
2023/09/02 14:20:34;;;;;;;0.17;0.17;;;;;;;;;;5074951;28;20081;-81